Etusivu
METAR-TAF:

METAR-TAF

Lentoasemat :

Nouakchottin kansainvälinen lentoasema

Nouakchott, Mauritania

Leveyspiiri: 18-18-36N, Pituuspiiri: 015-58-11W, korkeus merenpinnasta: 3 m

Tämänhetkinen sää

Tämä raportti tehtiin 16 minuuttia sitten, kello 19.00 UTC
Tuuli 9 kn lännestä/luoteesta
Lämpötila 27°C
Kosteus 79%
Ilmanpaine 1010 hPa
Näkyvyys: 8000 m

METAR: GQNO 171900Z 29009KT 8000 NSC 27/23 Q1010 NOSIG

Aika: 19:16 (19:16 UTC)

Sääennuste

Tämä raportti tehtiin 2 tuntia ja 16 minuuttia sitten, kello 17.00 UTC
Ennuste voimassa 17. päivästä klo 18 UTC - 18. päivään klo 24 UTC
Tuuli 10 kn lännestä
Näkyvyys: 8000 m
Tulossa
18. päivästä klo 08 UTC - 18. päivään klo 10 UTC
Tuuli 12 kn pohjoisen/luoteesta
Todennäköisyys 40% :
Ajoittain
18. päivästä klo 17 UTC - 18. päivään klo 21 UTC
Näkyvyys: 3000 m
hiekkatuisku

TAF: GQNO 171700Z 1718/1824 28010KT 8000 NSC BECMG 1808/1810 34012KT PROB40 TEMPO 1817/1821 3000 BLSA

Säähavainnot ja -ennusteet yli 4000 lentoasemalta (METAR- ja TAF-raportit).

Käytössä olevat sääasemat on merkitty karttaan keltaisilla ja punaisilla pisteillä.

Aseta hiiri pisteen päälle nähdäksesi sääaseman nimen.

Klikkaa sitten nähdäksesi säähavainnot ja -ennusteet.

Kartan vaihtaminen: klikkaa mustalla rastilla varustettuja vihreitä pisteitä, niin voit zoomata sisään; viivalla varustettua vihreää pistettä, niin voit zoomata ulos tai vihreitä nuolia, niin pääset viereisille kartoille.


METAR-TAF: